Grant, AL (35747)

4:05 PM CDT on September 04, 2015 (GMT -0500)
PlaygroundShores | | Change Station
CLOSE
Current Station
Personal Weather Station
Location: Guntersville, AL
Elevation: 610 ft
Nearby Weather Stations

Elev 610 ft 34.41 °N, 86.26 °W | Updated 15 seconds ago

Clear
Clear
89.9 °F
Feels Like 95 °F
N
3.0
Wind Variable Wind from ENE
Gusts 6.0 mph

Today
High -- | Low -- °F
--% Chance of Precip.
Yesterday
High -- | Low -- °F
Precip. -- in
6:20 AM 7:07 PM
Waning Gibbous, 56% visible
Pressure 30.00 in
Visibility 10.0 miles
Clouds Scattered Clouds 4700 ft
Heat Index 95 °F
Dew Point 69 °F
Humidity 51%
Rainfall 0.00 in
Snow Depth Not available.
UV 4 out of 12
Pollen 10.10 out of 12
Air Quality Not available.
Flu Activity Not available.
METAR K8A0 042055Z AUTO 14003KT 10SM SCT047 31/25 A3000 RMK AO2
Pressure 30.00 in
Visibility 10.0 miles
Clouds Scattered Clouds 4700 ft
Heat Index 95 °F
Dew Point 69 °F
Humidity 51%
Rainfall 0.00 in
Snow Depth Not available.
UV 4 out of 12
Pollen 10.10 out of 12
Air Quality Not available.
Flu Activity Not available.
METAR K8A0 042055Z AUTO 14003KT 10SM SCT047 31/25 A3000 RMK AO2

10-Day Weather Forecast

×

Almanac

Astronomy

Sep. 04, 2015 Rise Set
Actual Time
Civil Twilight
Nautical Twilight
Astronomical Twilight
Moon
Length of Visible Light
Length of Day
Tomorrow will be .
, % of the Moon is Illuminated

Today's Extremes

State Highs State Lows

Community

WunderPhotos

Upload Photos

1,852,290 photos uploaded!

WunderBlogs® & News

Nearby

Air Quality

  Air Quality AQ Index Pollutant
Not available.

Snow Depth

Station Depth Elevation

Earthquake Activity

City Distance Mag. Time & Date
Minimum magnitude displayed is 2.5.

Coastal Water Temperatures

Place Temperature

Stations

Nearby Weather Stations

Station Location Temp. Windchill Dew Point Humidity Wind Precip. Elev Updated Type